createdAt,value
2023-03-29T00:03:49.374Z,7.05
2023-03-29T00:09:50.903Z,7.04
2023-03-29T00:15:55.886Z,6.94
2023-03-29T00:21:57.604Z,6.91
2023-03-29T00:27:59.126Z,7.04
2023-03-29T00:34:00.737Z,6.79
2023-03-29T00:40:10.061Z,6.68
2023-03-29T00:46:11.570Z,6.90
2023-03-29T00:52:15.400Z,7.11
2023-03-29T00:58:21.122Z,7.24
2023-03-29T01:04:53.307Z,7.08
2023-03-29T01:11:19.861Z,6.89
2023-03-29T01:17:24.668Z,6.52
2023-03-29T01:23:53.967Z,6.55
2023-03-29T01:30:00.543Z,6.82
2023-03-29T01:36:12.403Z,6.78
2023-03-29T01:42:26.290Z,6.68
2023-03-29T01:48:36.262Z,6.92
2023-03-29T01:54:45.572Z,6.79
2023-03-29T02:00:48.534Z,6.78
2023-03-29T02:06:53.671Z,6.51
2023-03-29T02:13:00.746Z,6.08
2023-03-29T02:19:08.492Z,5.89
2023-03-29T02:25:10.297Z,5.88
2023-03-29T02:31:38.469Z,5.73
2023-03-29T02:37:43.703Z,5.69
2023-03-29T02:43:49.756Z,5.97
2023-03-29T02:49:51.300Z,5.79
2023-03-29T02:55:53.215Z,5.59
2023-03-29T03:01:55.025Z,5.65
2023-03-29T03:07:57.719Z,5.59
2023-03-29T03:13:59.438Z,5.60
2023-03-29T03:20:00.937Z,5.56
2023-03-29T03:26:02.739Z,5.31
2023-03-29T03:32:05.334Z,5.16
2023-03-29T03:38:25.664Z,5.44
2023-03-29T03:44:34.637Z,5.34
2023-03-29T03:51:20.841Z,5.27
2023-03-29T03:57:31.213Z,5.19
2023-03-29T04:03:33.358Z,5.26
2023-03-29T04:09:38.255Z,4.89
2023-03-29T04:16:01.697Z,4.84
2023-03-29T04:22:12.676Z,4.69
2023-03-29T04:28:17.052Z,4.78
2023-03-29T04:34:32.496Z,4.53
2023-03-29T04:40:34.565Z,4.60
2023-03-29T04:47:12.201Z,4.47
2023-03-29T04:53:27.630Z,4.44
2023-03-29T04:59:29.323Z,4.55
2023-03-29T05:05:33.464Z,4.58
2023-03-29T05:11:36.524Z,4.86
2023-03-29T05:17:38.739Z,5.28
2023-03-29T05:23:44.228Z,5.68
2023-03-29T05:29:51.655Z,5.66
2023-03-29T05:36:07.817Z,5.86
2023-03-29T05:42:14.832Z,6.51
2023-03-29T05:48:24.162Z,5.87
2023-03-29T05:54:26.483Z,6.24
2023-03-29T06:00:29.232Z,6.53
2023-03-29T06:06:38.583Z,6.73
2023-03-29T06:12:41.331Z,6.90
2023-03-29T06:18:44.198Z,6.91
2023-03-29T06:24:46.504Z,6.95
2023-03-29T06:31:01.852Z,7.78
2023-03-29T06:37:07.779Z,7.63
2023-03-29T06:43:10.364Z,7.55
2023-03-29T06:49:29.249Z,7.17
2023-03-29T06:55:54.103Z,8.16
2023-03-29T07:02:11.689Z,7.73
2023-03-29T07:08:22.472Z,7.68
2023-03-29T07:14:33.648Z,7.52
2023-03-29T07:20:37.741Z,7.32
2023-03-29T07:26:52.385Z,7.51
2023-03-29T07:33:03.658Z,7.88
2023-03-29T07:39:15.022Z,7.97
2023-03-29T07:45:26.084Z,7.96
2023-03-29T07:51:42.958Z,7.91
2023-03-29T07:57:46.594Z,8.34
2023-03-29T08:03:48.872Z,8.59
2023-03-29T08:09:51.284Z,8.81
2023-03-29T08:15:55.378Z,8.90
2023-03-29T08:22:02.275Z,9.45
2023-03-29T08:28:12.662Z,9.61
2023-03-29T08:34:20.853Z,9.21
2023-03-29T08:40:38.095Z,9.43
2023-03-29T08:47:36.210Z,9.71
2023-03-29T08:53:41.738Z,10.53
2023-03-29T08:59:51.035Z,10.23
2023-03-29T09:05:57.541Z,10.14
2023-03-29T09:12:16.038Z,10.37
2023-03-29T09:18:48.632Z,10.58
2023-03-29T09:25:20.768Z,10.15
2023-03-29T09:31:27.868Z,10.55
2023-03-29T09:37:33.903Z,10.58
2023-03-29T09:43:41.109Z,10.19
2023-03-29T09:49:48.299Z,11.28
2023-03-29T09:55:51.312Z,11.18
2023-03-29T10:02:13.025Z,10.68
2023-03-29T10:08:41.811Z,10.91
2023-03-29T10:14:53.922Z,12.45
2023-03-29T10:20:59.297Z,11.72
2023-03-29T10:27:03.140Z,11.72
2023-03-29T10:33:06.272Z,11.90
2023-03-29T10:39:10.079Z,11.77
2023-03-29T10:45:22.212Z,12.02
2023-03-29T10:51:27.057Z,13.14
2023-03-29T10:57:37.996Z,12.46
2023-03-29T11:03:58.150Z,13.40
2023-03-29T11:10:14.045Z,15.41
2023-03-29T11:16:15.941Z,12.75
2023-03-29T11:22:20.664Z,12.52
2023-03-29T11:28:42.363Z,12.72
2023-03-29T11:35:10.193Z,12.77
2023-03-29T11:41:17.053Z,12.52
2023-03-29T11:47:20.714Z,12.52
2023-03-29T11:53:27.780Z,12.91
2023-03-29T11:59:36.710Z,12.64
2023-03-29T12:05:45.276Z,12.54
2023-03-29T12:12:02.428Z,13.15
2023-03-29T12:18:07.097Z,13.08
2023-03-29T12:24:20.436Z,13.45
2023-03-29T12:30:40.966Z,13.71
2023-03-29T12:37:21.224Z,14.01
2023-03-29T12:43:42.747Z,13.87
2023-03-29T12:50:04.031Z,13.75
2023-03-29T12:56:07.841Z,13.94
2023-03-29T13:02:13.181Z,13.83
2023-03-29T13:08:25.705Z,14.17
2023-03-29T13:14:29.536Z,13.93
2023-03-29T13:21:20.466Z,14.11
2023-03-29T13:27:39.085Z,13.91
2023-03-29T13:33:55.459Z,14.24
2023-03-29T13:39:57.216Z,14.51
2023-03-29T13:45:59.304Z,14.26
2023-03-29T13:52:18.817Z,14.33
2023-03-29T13:58:39.090Z,14.07
2023-03-29T14:04:46.316Z,14.24
2023-03-29T14:10:48.221Z,14.32
2023-03-29T14:16:50.191Z,14.47
2023-03-29T14:22:52.460Z,14.30
2023-03-29T14:29:00.335Z,14.77
2023-03-29T14:35:02.112Z,14.82
2023-03-29T14:41:06.852Z,14.83
2023-03-29T14:47:15.653Z,14.88
2023-03-29T14:53:22.373Z,16.06
2023-03-29T14:59:38.291Z,15.70
2023-03-29T15:05:56.842Z,15.90
2023-03-29T15:12:04.682Z,15.84
2023-03-29T15:18:09.362Z,15.63
2023-03-29T15:24:30.785Z,15.83
2023-03-29T15:30:37.957Z,16.57
2023-03-29T15:36:49.600Z,16.12
2023-03-29T15:43:01.293Z,16.11
2023-03-29T15:49:04.279Z,16.30
2023-03-29T15:55:12.104Z,16.10
2023-03-29T16:01:38.086Z,17.92
2023-03-29T16:07:39.800Z,17.45
2023-03-29T16:13:44.726Z,17.60
2023-03-29T16:19:49.448Z,16.62
2023-03-29T16:25:50.900Z,15.74
2023-03-29T16:31:53.214Z,15.46
2023-03-29T16:37:55.904Z,15.00
2023-03-29T16:43:58.420Z,14.87
2023-03-29T16:50:00.021Z,14.40
2023-03-29T16:56:03.061Z,14.16
2023-03-29T17:02:05.172Z,13.79
2023-03-29T17:08:09.203Z,13.90
2023-03-29T17:14:12.049Z,13.55
2023-03-29T17:20:13.446Z,14.05
2023-03-29T17:26:17.533Z,-43.43
2023-03-29T17:32:19.047Z,-86.26
2023-03-29T17:38:21.108Z,-128.00
2023-03-29T17:44:22.823Z,-128.00
2023-03-29T17:50:25.697Z,-136.56
2023-03-29T17:56:27.720Z,-128.00
2023-03-29T18:02:29.458Z,-128.00
2023-03-29T18:08:32.086Z,-128.00
2023-03-29T18:14:34.882Z,-132.28
2023-03-29T18:20:36.522Z,-108.69
2023-03-29T18:26:38.420Z,-128.00
2023-03-29T18:32:40.117Z,-128.00
2023-03-29T18:38:43.258Z,-128.00
2023-03-29T18:44:48.505Z,-128.00
2023-03-29T18:51:16.549Z,-128.00
2023-03-29T18:57:25.868Z,-128.00
2023-03-29T19:03:28.017Z,-128.00
2023-03-29T19:09:30.999Z,-128.00
2023-03-29T19:15:46.803Z,-128.00
2023-03-29T19:21:48.925Z,-95.65
2023-03-29T19:27:50.995Z,-17.20
2023-03-29T19:33:52.910Z,-128.00
2023-03-29T19:39:58.441Z,-132.28
2023-03-29T19:46:06.431Z,-45.00
2023-03-29T19:52:08.047Z,-128.00
2023-03-29T19:58:09.601Z,-128.00
2023-03-29T20:04:11.387Z,-128.00
2023-03-29T20:10:16.558Z,-128.00
2023-03-29T20:16:23.698Z,-132.28
2023-03-29T20:22:30.059Z,-21.76
2023-03-29T20:28:37.215Z,9.86
2023-03-29T20:34:41.246Z,9.63
2023-03-29T20:40:44.403Z,9.72
2023-03-29T20:47:18.142Z,-0.55
2023-03-29T21:00:37.807Z,-49.85
2023-03-29T21:07:04.865Z,-140.84
2023-03-29T21:13:06.973Z,10.19
2023-03-29T21:19:09.535Z,9.91
2023-03-29T21:25:15.330Z,9.97
2023-03-29T21:31:17.464Z,9.69
2023-03-29T21:37:21.473Z,9.71
2023-03-29T21:43:25.426Z,9.88
2023-03-29T21:49:29.145Z,9.67
2023-03-29T21:55:33.398Z,9.48
2023-03-29T22:01:35.124Z,9.36
2023-03-29T22:07:40.190Z,9.26
2023-03-29T22:13:45.557Z,9.41
2023-03-29T22:19:49.723Z,9.35
2023-03-29T22:25:51.245Z,9.04
2023-03-29T22:31:53.136Z,8.92
2023-03-29T22:37:55.109Z,8.87
2023-03-29T22:43:58.064Z,8.82
2023-03-29T22:49:59.881Z,8.82
2023-03-29T22:56:06.873Z,8.69
2023-03-29T23:02:08.504Z,8.97
2023-03-29T23:08:10.346Z,9.18
2023-03-29T23:14:11.825Z,9.36
2023-03-29T23:20:13.391Z,9.49
2023-03-29T23:26:15.256Z,9.76
2023-03-29T23:32:16.718Z,10.03
2023-03-29T23:38:18.483Z,10.11
2023-03-29T23:44:20.144Z,10.29
2023-03-29T23:50:21.963Z,10.52
2023-03-29T23:56:23.566Z,10.50
